Data for 11/07/2005

Time Sea-Level Adjusted Pressure Absolute Pressure Temperature Relative Humidity Dew Point   
(mb) (inHg) (mb) (inHg) (C) (F) (%) (C) (F)
00:05 1012 29.88 842 24.86 1.6 34.9 87 -0.4 31.3
00:10 1013 29.91 842 24.86 1.6 34.9 86 -0.5 31.2
00:15 1013 29.91 842 24.86 1.8 35.2 85 -0.4 31.2
00:20 1013 29.91 842 24.86 1.8 35.3 85 -0.4 31.3
00:25 1013 29.91 842 24.86 1.7 35 87 -0.3 31.5
00:30 1013 29.91 842 24.86 1.4 34.6 88 -0.3 31.5
00:35 1013 29.91 842 24.86 1.3 34.4 88 -0.5 31.1
00:40 1013 29.91 842 24.86 1.5 34.7 87 -0.4 31.3
00:45 1013 29.91 842 24.86 1.7 35.1 86 -0.4 31.3
00:50 1013 29.91 842 24.86 1.7 35.1 86 -0.4 31.3
00:55 1013 29.91 842 24.86 1.7 35 88 -0.2 31.7
01:00 1013 29.91 842 24.86 1.7 35 91 0.3 32.6
01:05 1013 29.91 842 24.86 1.5 34.7 92 0.3 32.6
01:10 1012 29.88 842 24.86 1.3 34.4 93 0.3 32.6
01:15 1012 29.88 842 24.86 1.1 34 94 0.3 32.5
01:20 1013 29.91 842 24.86 1.1 34 95 0.3 32.6
01:25 1013 29.91 842 24.86 1.3 34.4 93 0.3 32.6
01:30 1013 29.91 842 24.86 1.4 34.6 92 0.3 32.5
01:35 1013 29.91 842 24.86 1.5 34.7 92 0.3 32.6
01:40 1013 29.91 842 24.86 1.6 34.8 92 0.3 32.6
01:45 1013 29.91 842 24.86 1.5 34.6 92 0.3 32.5
01:50 1013 29.91 842 24.86 1.5 34.7 92 0.4 32.7
01:55 1013 29.91 842 24.86 1.6 34.9 92 0.4 32.7
02:00 1013 29.91 842 24.86 1.5 34.7 92 0.4 32.7
02:05 1013 29.91 842 24.86 1.5 34.7 92 0.4 32.7
02:10 1013 29.91 842 24.86 1.6 34.8 92 0.4 32.7
02:15 1013 29.91 842 24.86 1.6 34.8 92 0.4 32.8
02:20 1013 29.91 843 24.89 1.5 34.7 92 0.3 32.5
02:25 1013 29.91 843 24.89 1.4 34.5 92 0.2 32.3
02:30 1013 29.91 843 24.89 1.5 34.6 91 0.2 32.3
02:35 1013 29.91 843 24.89 1.4 34.6 90 -0 31.9
02:40 1013 29.91 843 24.89 1 33.9 92 -0.1 31.8
02:45 1013 29.91 843 24.89 0.9 33.6 92 -0.3 31.5
02:50 1013 29.91 843 24.89 0.9 33.5 93 -0.2 31.6
02:55 1013 29.91 843 24.89 0.9 33.6 93 -0.2 31.7
03:00 1013 29.91 843 24.89 0.9 33.7 93 -0.1 31.9
03:05 1013 29.91 843 24.89 1 33.8 93 -0.1 31.9
03:10 1013 29.91 843 24.89 1 33.9 92 -0.1 31.9
03:15 1013 29.91 843 24.89 0.8 33.5 93 -0.1 31.8
03:20 1013 29.91 843 24.89 0.8 33.4 93 -0.3 31.5
03:25 1013 29.91 843 24.89 0.7 33.2 93 -0.3 31.4
03:30 1013 29.91 842 24.86 0.5 32.9 94 -0.4 31.3
03:35 1013 29.91 843 24.89 0.5 32.9 93 -0.4 31.2
03:40 1013 29.91 843 24.89 0.5 33 94 -0.4 31.3
03:45 1013 29.91 842 24.86 0.6 33.1 94 -0.3 31.4
03:50 1013 29.91 842 24.86 0.6 33.1 93 -0.3 31.4
03:55 1013 29.91 842 24.86 0.6 33.1 94 -0.3 31.5
04:00 1013 29.91 842 24.86 0.6 33 94 -0.3 31.5
04:05 1013 29.91 842 24.86 0.6 33.1 95 -0.2 31.7
04:10 1013 29.91 842 24.86 0.6 33.1 95 -0.2 31.7
04:15 1013 29.91 842 24.86 0.7 33.2 94 -0.1 31.8
04:20 1013 29.91 843 24.89 0.7 33.2 94 -0.2 31.6
04:25 1013 29.91 843 24.89 0.7 33.3 92 -0.4 31.4
04:30 1013 29.91 843 24.89 0.7 33.3 92 -0.4 31.3
04:35 1013 29.91 843 24.89 0.8 33.4 93 -0.3 31.5
04:40 1013 29.91 843 24.89 0.8 33.5 93 -0.1 31.8
04:45 1013 29.91 843 24.89 0.7 33.3 95 -0.1 31.9
04:50 1013 29.91 843 24.89 0.6 33 95 -0.1 31.8
04:55 1013 29.91 843 24.89 0.5 33 96 -0.1 31.8
05:00 1013 29.91 842 24.86 0.5 32.9 96 -0 31.9
05:05 1013 29.91 842 24.86 0.4 32.8 96 -0.1 31.8
05:10 1013 29.91 842 24.86 0.4 32.7 96 -0.2 31.7
05:15 1013 29.91 842 24.86 0.3 32.6 96 -0.2 31.7
05:20 1013 29.91 843 24.89 0.4 32.7 96 -0.2 31.6
05:25 1013 29.91 842 24.86 0.4 32.7 96 -0.2 31.6
05:30 1013 29.91 842 24.86 0.4 32.7 96 -0.2 31.7
05:35 1013 29.91 843 24.89 0.3 32.6 96 -0.2 31.6
05:40 1013 29.91 843 24.89 0.3 32.5 97 -0.2 31.6
05:45 1013 29.91 842 24.86 0.3 32.6 97 -0.2 31.7
05:50 1013 29.91 842 24.86 0.4 32.6 97 -0.1 31.8
05:55 1013 29.91 842 24.86 0.4 32.7 96 -0.2 31.7
06:00 1013 29.91 842 24.86 0.5 32.8 95 -0.2 31.6
06:05 1013 29.91 842 24.86 0.5 33 94 -0.3 31.5
06:10 1013 29.91 842 24.86 0.5 32.9 94 -0.4 31.2
06:15 1013 29.91 842 24.86 0.5 33 93 -0.5 31
06:20 1013 29.91 842 24.86 0.6 33 91 -0.7 30.8
06:25 1013 29.91 842 24.86 0.6 33.1 91 -0.7 30.8
06:30 1013 29.91 842 24.86 0.8 33.4 90 -0.8 30.6
06:35 1013 29.91 842 24.86 0.9 33.5 89 -0.7 30.7
06:40 1013 29.91 842 24.86 0.9 33.6 89 -0.7 30.7
06:45 1013 29.91 842 24.86 0.9 33.7 89 -0.7 30.7
06:50 1013 29.91 842 24.86 1 33.8 88 -0.8 30.6
06:55 1013 29.91 842 24.86 1 33.8 89 -0.6 30.9
07:00 1013 29.91 842 24.86 0.9 33.5 93 -0.2 31.7
07:05 1013 29.91 842 24.86 0.5 32.9 96 -0 32
07:10 1013 29.91 843 24.89 0.3 32.5 98 0 32
07:15 1013 29.91 843 24.89 0.2 32.4 98 -0.1 31.9
07:20 1013 29.91 843 24.89 0.1 32.1 98 -0.1 31.7
07:25 1013 29.91 843 24.89 0 32.1 99 -0.1 31.8
07:30 1013 29.91 843 24.89 0 32 99 -0.1 31.8
07:35 1013 29.91 843 24.89 -0 32 99 -0.1 31.8
07:40 1013 29.91 843 24.89 0 32.1 99 -0.1 31.9
07:45 1013 29.91 843 24.89 0.1 32.2 99 0 32.1
07:50 1013 29.91 843 24.89 0.2 32.3 99 0 32
07:55 1013 29.91 843 24.89 0.3 32.5 99 0.1 32.2
08:00 1013 29.91 843 24.89 0.4 32.7 98 0.1 32.1
08:05 1013 29.91 843 24.89 0.5 32.8 94 -0.4 31.3
08:10 1013 29.91 843 24.89 0.7 33.3 90 -0.8 30.6
08:15 1013 29.91 843 24.89 0.8 33.4 91 -0.6 31
08:20 1014 29.94 843 24.89 1 33.7 94 0.1 32.1
08:25 1014 29.94 843 24.89 1.1 34 93 0.2 32.3
08:30 1014 29.94 843 24.89 1.2 34.1 93 0.2 32.3
08:35 1014 29.94 843 24.89 1 33.7 95 0.2 32.4
08:40 1013 29.91 843 24.89 0.7 33.3 96 0.2 32.4
08:45 1014 29.94 843 24.89 0.8 33.5 96 0.2 32.3
08:50 1014 29.94 843 24.89 0.7 33.3 96 0.1 32.2
08:55 1014 29.94 843 24.89 0.7 33.2 96 0 32
09:00 1014 29.94 843 24.89 0.5 32.9 97 0 32
09:05 1014 29.94 843 24.89 0.6 33.1 97 0.2 32.3
09:10 1014 29.94 843 24.89 0.9 33.6 96 0.3 32.6
09:15 1014 29.94 843 24.89 1.1 34 95 0.4 32.7
09:20 1014 29.94 843 24.89 1.2 34.1 94 0.3 32.6
09:25 1014 29.94 843 24.89 1.1 34 95 0.4 32.7
09:30 1014 29.94 843 24.89 1.1 34.1 95 0.4 32.8
09:35 1014 29.94 843 24.89 1.1 33.9 95 0.4 32.7
09:40 1014 29.94 843 24.89 0.9 33.7 96 0.3 32.6
09:45 1014 29.94 843 24.89 1 33.7 95 0.3 32.6
09:50 1014 29.94 843 24.89 1 33.8 95 0.3 32.5
09:55 1014 29.94 843 24.89 1.1 34 94 0.3 32.6
10:00 1014 29.94 843 24.89 1.1 34 94 0.2 32.4
10:05 1014 29.94 843 24.89 0.9 33.5 96 0.2 32.4
10:10 1014 29.94 843 24.89 1.1 33.9 95 0.3 32.5
10:15 1014 29.94 843 24.89 1.1 34 95 0.4 32.7
10:20 1014 29.94 843 24.89 1.1 34 95 0.4 32.7
10:25 1014 29.94 843 24.89 1.3 34.4 93 0.3 32.5
10:30 1014 29.94 843 24.89 1.2 34.2 93 0.3 32.5
10:35 1014 29.94 843 24.89 1.1 34 94 0.3 32.5
10:40 1014 29.94 843 24.89 1.5 34.8 93 0.5 32.9
10:45 1014 29.94 843 24.89 1.7 35.1 92 0.6 33.1
10:50 1014 29.94 843 24.89 1.8 35.2 91 0.5 32.9
10:55 1014 29.94 843 24.89 1.7 35.1 93 0.7 33.3
11:00 1014 29.94 843 24.89 1.8 35.2 91 0.4 32.8
11:05 1014 29.94 843 24.89 1.7 35.1 91 0.4 32.7
11:10 1014 29.94 843 24.89 2 35.6 91 0.6 33.1
11:15 1014 29.94 843 24.89 2.1 35.8 88 0.4 32.7
11:20 1013 29.91 843 24.89 2.5 36.6 88 0.7 33.3
11:25 1013 29.91 843 24.89 2.7 36.9 86 0.6 33.1
11:30 1013 29.91 843 24.89 2.7 36.8 83 0.1 32.1
11:35 1013 29.91 842 24.86 2.9 37.2 83 0.2 32.4
11:40 1013 29.91 843 24.89 3 37.4 84 0.5 33
11:45 1013 29.91 842 24.86 3 37.5 84 0.6 33.1
11:50 1013 29.91 842 24.86 3 37.3 85 0.7 33.3
11:55 1013 29.91 842 24.86 3.2 37.7 85 0.9 33.6
12:00 1013 29.91 842 24.86 3.1 37.5 86 0.9 33.7
12:05 1013 29.91 842 24.86 2.5 36.6 89 1 33.8
12:10 1013 29.91 842 24.86 2.1 35.8 91 0.8 33.4
12:15 1013 29.91 842 24.86 1.9 35.4 93 0.8 33.5
12:20 1013 29.91 842 24.86 2 35.5 91 0.7 33.2
12:25 1012 29.88 842 24.86 2 35.7 92 0.9 33.6
12:30 1012 29.88 842 24.86 2.3 36.2 90 0.8 33.4
12:35 1012 29.88 841 24.83 2.7 36.8 87 0.8 33.4
12:40 1012 29.88 841 24.83 3.1 37.6 86 0.9 33.7
12:45 1012 29.88 841 24.83 3.3 37.9 80 0.1 32.2
12:50 1012 29.88 841 24.83 3.1 37.6 79 -0.3 31.5
12:55 1012 29.88 841 24.83 3.2 37.8 79 -0.1 31.9
13:00 1012 29.88 841 24.83 3.4 38.1 80 0.2 32.3
13:05 1012 29.88 841 24.83 3.6 38.5 79 0.3 32.5
13:10 1012 29.88 841 24.83 3.6 38.4 79 0.3 32.5
13:15 1012 29.88 841 24.83 3.7 38.7 78 0.3 32.6
13:20 1012 29.88 841 24.83 3.9 39 81 0.9 33.5
13:25 1012 29.88 841 24.83 3.7 38.7 84 1.2 34.2
13:30 1012 29.88 841 24.83 3.7 38.7 84 1.2 34.2
13:35 1012 29.88 841 24.83 3.5 38.3 84 1.1 34
13:40 1012 29.88 841 24.83 3.1 37.6 86 1.1 33.9
13:45 1012 29.88 841 24.83 3.2 37.7 85 0.9 33.7
13:50 1011 29.85 841 24.83 3.4 38.1 83 0.8 33.5
13:55 1011 29.85 841 24.83 3.9 39 80 0.8 33.5
14:00 1011 29.85 841 24.83 4.2 39.5 80 1.1 34
14:05 1012 29.88 841 24.83 4.2 39.5 81 1.2 34.2
14:10 1012 29.88 841 24.83 3.6 38.5 83 1.1 33.9
14:15 1011 29.85 841 24.83 4.1 39.4 80 1 33.8
14:20 1011 29.85 841 24.83 4.4 39.9 78 0.9 33.7
14:25 1011 29.85 841 24.83 4.4 40 79 1.1 33.9
14:30 1011 29.85 840 24.81 4.1 39.4 81 1.2 34.1
14:35 1011 29.85 840 24.81 4.3 39.7 80 1.1 34
14:40 1011 29.85 840 24.81 4.2 39.6 76 0.4 32.8
14:45 1011 29.85 840 24.81 4 39.3 77 0.4 32.7
14:50 1011 29.85 840 24.81 3.9 38.9 78 0.4 32.8
14:55 1011 29.85 840 24.81 3.9 39 77 0.3 32.5
15:00 1011 29.85 840 24.81 3.9 39 77 0.3 32.5
15:05 1011 29.85 840 24.81 3.8 38.9 78 0.4 32.7
15:10 1011 29.85 840 24.81 3.9 39.1 78 0.4 32.8
15:15 1011 29.85 840 24.81 3.8 38.9 84 1.3 34.3
15:20 1011 29.85 840 24.81 3.3 37.9 87 1.4 34.4
15:25 1011 29.85 840 24.81 3.2 37.8 86 1.1 34
15:30 1011 29.85 840 24.81 2.7 36.8 90 1.2 34.1
15:35 1011 29.85 840 24.81 2.6 36.7 89 1 33.8
15:40 1011 29.85 840 24.81 2.9 37.3 87 0.9 33.7
15:45 1011 29.85 840 24.81 2.9 37.2 88 1.1 34
15:50 1011 29.85 840 24.81 2.7 36.9 90 1.2 34.2
15:55 1011 29.85 840 24.81 2.7 36.9 90 1.2 34.1
16:00 1011 29.85 840 24.81 2.8 37.1 88 1.1 33.9
16:05 1010 29.83 840 24.81 3 37.4 87 1.1 33.9
16:10 1010 29.83 840 24.81 3.2 37.8 86 1.1 33.9
16:15 1010 29.83 840 24.81 3.4 38 84 1 33.7
16:20 1010 29.83 839 24.78 3.6 38.4 82 0.8 33.5
16:25 1010 29.83 839 24.78 3.8 38.8 81 0.8 33.4
16:30 1010 29.83 839 24.78 3.8 38.9 81 0.8 33.5
16:35 1010 29.83 839 24.78 3.8 38.8 82 1 33.7
16:40 1010 29.83 839 24.78 3.8 38.8 81 0.8 33.5
16:45 1010 29.83 839 24.78 3.8 38.9 80 0.7 33.3
16:50 1010 29.83 839 24.78 4 39.1 80 0.8 33.4
16:55 1010 29.83 839 24.78 4 39.2 80 0.9 33.6
17:00 1010 29.83 839 24.78 4.1 39.4 79 0.8 33.4
17:05 1010 29.83 839 24.78 4.4 39.9 77 0.8 33.4
17:10 1010 29.83 839 24.78 4.8 40.6 75 0.7 33.2
17:15 1010 29.83 839 24.78 5.2 41.3 74 0.8 33.5
17:20 1010 29.83 839 24.78 5.3 41.5 73 0.8 33.4
17:25 1010 29.83 839 24.78 5.4 41.7 73 0.9 33.6
17:30 1010 29.83 839 24.78 5.2 41.4 76 1.4 34.5
17:35 1010 29.83 839 24.78 4.9 40.8 78 1.3 34.4
17:40 1010 29.83 839 24.78 4.4 39.9 79 1 33.8
17:45 1010 29.83 839 24.78 3.7 38.7 85 1.5 34.7
17:50 1010 29.83 839 24.78 2.6 36.6 90 1.1 34
17:55 1010 29.83 839 24.78 2.1 35.8 92 1 33.7
18:00 1010 29.83 839 24.78 2.5 36.5 87 0.6 33.1
18:05 1010 29.83 839 24.78 3.2 37.8 83 0.6 33.1
18:10 1010 29.83 839 24.78 3.7 38.7 80 0.5 33
18:15 1010 29.83 839 24.78 4.3 39.8 77 0.6 33.1
18:20 1010 29.83 839 24.78 4.9 40.9 74 0.7 33.3
18:25 1010 29.83 839 24.78 5.2 41.4 72 0.6 33.2
18:30 1010 29.83 839 24.78 5.4 41.7 72 0.8 33.5
18:35 1010 29.83 839 24.78 5.4 41.7 72 0.8 33.5
18:40 1010 29.83 839 24.78 5.6 42 71 0.7 33.3
18:45 1010 29.83 839 24.78 5.6 42.1 71 0.7 33.3
18:50 1010 29.83 839 24.78 5.6 42 72 0.8 33.5
18:55 1010 29.83 839 24.78 5.4 41.7 72 0.8 33.5
19:00 1010 29.83 839 24.78 5.3 41.5 72 0.7 33.2
19:05 1009 29.8 839 24.78 5.4 41.7 71 0.6 33.1
19:10 1009 29.8 839 24.78 5.4 41.8 71 0.6 33.1
19:15 1009 29.8 839 24.78 5.5 41.9 70 0.6 33
19:20 1009 29.8 839 24.78 5.6 42.1 70 0.5 33
19:25 1009 29.8 839 24.78 5.7 42.3 70 0.6 33.1
19:30 1009 29.8 839 24.78 5.9 42.7 68 0.6 33
19:35 1009 29.8 839 24.78 6.1 43 67 0.5 32.9
19:40 1009 29.8 839 24.78 6.2 43.2 66 0.4 32.7
19:45 1009 29.8 838 24.75 6.5 43.7 65 0.4 32.7
19:50 1009 29.8 839 24.78 6.7 44.1 64 0.5 32.9
19:55 1009 29.8 838 24.75 6.7 44 66 0.8 33.4
20:00 1009 29.8 838 24.75 6.4 43.6 67 0.8 33.4
20:05 1009 29.8 838 24.75 6.2 43.2 68 0.8 33.4
20:10 1009 29.8 838 24.75 6.2 43.2 67 0.6 33.2
20:15 1009 29.8 838 24.75 6.6 44 66 0.8 33.5
20:20 1009 29.8 838 24.75 6.8 44.2 66 0.8 33.5
20:25 1009 29.8 838 24.75 6.9 44.3 65 0.8 33.4
20:30 1009 29.8 838 24.75 7.1 44.8 64 0.7 33.3
20:35 1009 29.8 838 24.75 7.1 44.8 65 0.9 33.6
20:40 1009 29.8 838 24.75 7 44.5 65 0.8 33.4
20:45 1009 29.8 838 24.75 7 44.6 64 0.8 33.4
20:50 1009 29.8 838 24.75 7 44.6 65 0.9 33.5
20:55 1009 29.8 838 24.75 7 44.6 64 0.7 33.3
21:00 1009 29.8 838 24.75 7.1 44.7 64 0.7 33.2
21:05 1009 29.8 838 24.75 7.1 44.7 64 0.8 33.4
21:10 1009 29.8 838 24.75 7 44.6 64 0.8 33.4
21:15 1009 29.8 838 24.75 7.1 44.8 64 0.7 33.3
21:20 1009 29.8 838 24.75 6.9 44.4 65 0.8 33.5
21:25 1009 29.8 838 24.75 6.9 44.4 63 0.3 32.5
21:30 1009 29.8 838 24.75 7.8 46 58 0.1 32.3
21:35 1009 29.8 838 24.75 8.3 46.9 55 -0.3 31.5
21:40 1009 29.8 838 24.75 8.9 48 54 0.2 32.3
21:45 1009 29.8 838 24.75 8.8 47.9 56 0.7 33.2
21:50 1009 29.8 838 24.75 8.1 46.6 59 0.6 33.1
21:55 1009 29.8 838 24.75 8 46.4 58 0.2 32.3
22:00 1009 29.8 838 24.75 8.1 46.5 59 0.6 33.1
22:05 1009 29.8 838 24.75 8.1 46.6 55 -0.4 31.2
22:10 1009 29.8 838 24.75 9.8 49.7 50 0.1 32.2
22:15 1009 29.8 838 24.75 10.2 50.4 50 0.3 32.5
22:20 1009 29.8 838 24.75 10.4 50.8 49 0.2 32.4
22:25 1009 29.8 838 24.75 10.6 51.2 48 0.1 32.2
22:30 1009 29.8 838 24.75 10.4 50.6 50 0.3 32.6
22:35 1009 29.8 838 24.75 10.4 50.6 48 -0.1 31.9
22:40 1009 29.8 838 24.75 10.6 51.1 47 -0.2 31.7
22:45 1008 29.77 838 24.75 10.7 51.3 47 -0.2 31.6
22:50 1009 29.8 838 24.75 10.8 51.4 47 0 32.1
22:55 1009 29.8 838 24.75 10.5 51 49 0.3 32.5
23:00 1008 29.77 838 24.75 10.5 51 47 -0.1 31.8
23:05 1008 29.77 837 24.72 10.7 51.2 48 0.2 32.4
23:10 1008 29.77 837 24.72 10.6 51.1 48 0 32.1
23:15 1008 29.77 837 24.72 10.7 51.3 48 0.3 32.6
23:20 1008 29.77 837 24.72 10.4 50.7 48 -0 32
23:25 1008 29.77 837 24.72 10.5 50.9 48 0.1 32.1
23:30 1008 29.77 837 24.72 10.6 51 48 0.2 32.3
23:35 1008 29.77 837 24.72 10.4 50.8 49 0.1 32.2
23:40 1008 29.77 837 24.72 10.3 50.5 49 0.2 32.3
23:45 1008 29.77 837 24.72 10.3 50.6 49 0.2 32.4
23:50 1008 29.77 837 24.72 10.3 50.5 50 0.3 32.5
23:55 1008 29.77 837 24.72 10.3 50.5 48 -0.1 31.9
24:00 1008 29.77 837 24.72 10.4 50.6 47 -0.4 31.3